Time;durP1;ratioP1;P1;durP2;ratioP2;P2;SDS_P1;SDS_P2;PMS_P1;PMS_P2;Temp;Humidity;BMP_temperature;BMP_pressure;BME280_temperature;BME280_humidity;BME280_pressure;Samples;Min_cycle;Max_cycle;Signal;HPM_P1;HPM_P2
2022/03/09 00:01:35;;;;;;;21.85;11.60;;;;;;;2.45;51.13;101977.06;5237830;28;19916;-73
2022/03/09 00:04:06;;;;;;;19.03;11.80;;;;;;;2.37;51.79;101969.03;5245576;28;20057;-75
2022/03/09 00:06:38;;;;;;;17.47;11.37;;;;;;;2.32;51.50;101973.13;5244316;28;20029;-75
2022/03/09 00:09:10;;;;;;;20.50;12.07;;;;;;;2.32;51.16;101979.13;5245563;28;20048;-73
2022/03/09 00:11:41;;;;;;;17.23;10.97;;;;;;;2.33;51.02;101980.00;5244852;28;20033;-76
2022/03/09 00:14:12;;;;;;;16.73;10.30;;;;;;;2.34;50.70;101977.50;5245332;28;20329;-75
2022/03/09 00:16:44;;;;;;;16.77;10.90;;;;;;;2.18;51.12;101980.28;5246120;28;20069;-73
2022/03/09 00:19:15;;;;;;;17.27;10.47;;;;;;;2.22;51.33;101983.84;5240918;28;20025;-76
2022/03/09 00:21:47;;;;;;;14.37;9.70;;;;;;;2.20;51.11;101983.78;5241319;28;20080;-72
2022/03/09 00:24:19;;;;;;;13.37;8.97;;;;;;;2.25;50.59;101983.97;5259286;28;20041;-74
2022/03/09 00:26:50;;;;;;;14.38;9.25;;;;;;;2.19;51.27;101985.47;5245047;28;20477;-74
2022/03/09 00:29:22;;;;;;;15.93;10.17;;;;;;;2.23;50.83;101990.75;5246049;28;20028;-74
2022/03/09 00:31:53;;;;;;;11.47;8.80;;;;;;;2.17;50.80;101987.13;5245842;28;20052;-74
2022/03/09 00:34:26;;;;;;;15.07;8.23;;;;;;;2.21;50.61;101982.97;5243685;28;20025;-75
2022/03/09 00:36:59;;;;;;;;;;;;;;;2.15;49.55;101987.88;5241182;28;20088;-74
2022/03/09 00:39:30;;;;;;;12.43;9.05;;;;;;;2.23;50.62;101993.31;5235064;28;19971;-75
2022/03/09 00:42:02;;;;;;;12.03;8.40;;;;;;;2.18;50.69;101991.44;5249137;28;20484;-75
2022/03/09 00:44:33;;;;;;;13.13;9.13;;;;;;;2.12;50.79;101980.03;5255824;28;20086;-75
2022/03/09 00:47:05;;;;;;;11.07;8.17;;;;;;;2.10;50.90;101984.22;5255888;28;20620;-75
2022/03/09 00:49:36;;;;;;;13.27;9.70;;;;;;;2.08;51.10;101985.88;5256049;28;20025;-75
2022/03/09 00:52:07;;;;;;;11.80;8.03;;;;;;;2.11;50.71;101984.28;5255982;28;20029;-74
2022/03/09 00:54:39;;;;;;;15.17;9.30;;;;;;;2.08;50.98;101984.16;5255797;28;20036;-76
2022/03/09 00:57:10;;;;;;;15.13;9.37;;;;;;;2.13;50.92;101980.09;5255062;28;20032;-75
2022/03/09 00:59:42;;;;;;;13.53;8.90;;;;;;;2.10;50.46;101981.66;5255658;28;20035;-74
2022/03/09 01:02:13;;;;;;;13.70;9.13;;;;;;;2.06;50.63;101980.66;5255815;28;20024;-75
2022/03/09 01:04:45;;;;;;;11.60;8.57;;;;;;;2.02;50.73;101986.47;5255788;28;20083;-74
2022/03/09 01:07:16;;;;;;;12.67;9.40;;;;;;;1.93;51.23;101986.09;5255526;28;20128;-75
2022/03/09 01:09:48;;;;;;;13.10;9.23;;;;;;;1.88;51.44;101985.88;5255610;28;20782;-75
2022/03/09 01:12:19;;;;;;;12.20;8.30;;;;;;;1.84;51.30;101981.44;5255345;28;20041;-75
2022/03/09 01:14:51;;;;;;;22.77;8.20;;;;;;;1.83;51.24;101977.09;5255791;28;20040;-75
2022/03/09 01:17:22;;;;;;;13.27;8.73;;;;;;;1.76;51.44;101982.81;5255338;28;20363;-74
2022/03/09 01:19:54;;;;;;;14.83;8.93;;;;;;;1.72;51.47;101976.66;5255387;28;20044;-75
2022/03/09 01:22:25;;;;;;;11.23;8.30;;;;;;;1.66;51.86;101976.41;5255483;28;20086;-74
2022/03/09 01:24:57;;;;;;;12.97;8.63;;;;;;;1.59;51.76;101975.25;5255567;28;20340;-74
2022/03/09 01:27:28;;;;;;;12.13;8.40;;;;;;;1.60;52.12;101982.16;5254822;28;20608;-75
2022/03/09 01:29:59;;;;;;;18.73;9.03;;;;;;;1.50;52.05;101980.00;5255525;28;20425;-73
2022/03/09 01:32:31;;;;;;;12.23;8.13;;;;;;;1.51;51.84;101986.88;5257417;28;20021;-73
2022/03/09 01:35:03;;;;;;;15.33;9.10;;;;;;;1.47;51.75;101972.16;5259392;28;20024;-73
2022/03/09 01:37:34;;;;;;;12.88;9.32;;;;;;;1.42;52.83;101974.53;5259716;28;20021;-76
2022/03/09 01:40:07;;;;;;;17.97;8.70;;;;;;;1.42;52.64;101978.81;5259657;28;20040;-74
2022/03/09 01:42:38;;;;;;;18.55;8.63;;;;;;;1.37;52.60;101970.88;5259098;28;20036;-73
2022/03/09 01:45:12;;;;;;;12.70;8.20;;;;;;;1.31;52.21;101969.75;5259476;28;20029;-75
2022/03/09 01:47:43;;;;;;;17.33;8.63;;;;;;;1.22;53.21;101967.63;5259637;28;20021;-74
2022/03/09 01:50:15;;;;;;;20.50;9.33;;;;;;;1.24;53.19;101966.00;5262111;28;20095;-74
2022/03/09 01:52:46;;;;;;;15.73;8.47;;;;;;;1.20;53.56;101964.13;5260667;28;20151;-74
2022/03/09 01:55:18;;;;;;;13.70;9.37;;;;;;;1.05;53.63;101965.19;5259270;28;20029;-73
2022/03/09 01:57:49;;;;;;;13.23;8.17;;;;;;;1.11;53.46;101971.41;5259016;28;20033;-73
2022/03/09 02:00:22;;;;;;;16.03;8.73;;;;;;;1.09;54.04;101967.09;5259276;28;20029;-75
2022/03/09 02:02:53;;;;;;;10.90;7.82;;;;;;;1.07;54.22;101970.41;5258469;28;20112;-74
2022/03/09 02:05:25;;;;;;;13.73;8.53;;;;;;;1.00;54.13;101963.22;5259858;28;20120;-75
2022/03/09 02:10:49;;;;;;;14.70;8.23;;;;;;;0.93;54.37;101958.63;5258383;28;20484;-73
2022/03/09 02:13:21;;;;;;;17.73;9.70;;;;;;;0.90;53.89;101967.94;5258285;28;20111;-75
2022/03/09 02:15:54;;;;;;;12.43;8.40;;;;;;;0.81;54.49;101969.22;5258109;28;20110;-74
2022/03/09 02:18:25;;;;;;;14.93;8.90;;;;;;;0.82;54.60;101970.94;5258374;28;20029;-75
2022/03/09 02:21:01;;;;;;;13.03;8.77;;;;;;;0.80;54.62;101973.44;5258095;28;20333;-75
2022/03/09 02:23:32;;;;;;;13.70;8.98;;;;;;;0.76;54.59;101969.00;5257701;28;20068;-74
2022/03/09 02:26:03;;;;;;;13.90;10.00;;;;;;;0.72;55.24;101970.56;5258602;28;20536;-75
2022/03/09 02:28:39;;;;;;;13.67;8.83;;;;;;;0.70;55.37;101971.28;5258236;28;20118;-75
2022/03/09 02:31:10;;;;;;;13.43;8.90;;;;;;;0.66;55.43;101970.25;5258318;28;20373;-74
2022/03/09 02:33:45;;;;;;;15.33;8.60;;;;;;;0.61;55.28;101970.84;5257912;28;20044;-75
2022/03/09 02:36:16;;;;;;;15.45;8.10;;;;;;;0.61;55.94;101971.75;5257790;28;20070;-75
2022/03/09 02:38:48;;;;;;;14.40;9.33;;;;;;;0.56;55.36;101972.31;5257879;28;20021;-75
2022/03/09 02:41:19;;;;;;;13.13;9.20;;;;;;;0.54;56.00;101964.53;5257963;28;20452;-75
2022/03/09 02:43:52;;;;;;;14.43;9.23;;;;;;;0.50;55.97;101958.41;5256830;28;20041;-74
2022/03/09 02:46:23;;;;;;;15.00;9.18;;;;;;;0.48;55.82;101951.41;5257688;28;20086;-74
2022/03/09 02:48:55;;;;;;;14.13;9.53;;;;;;;0.42;56.08;101951.13;5257794;28;20499;-75
2022/03/09 02:51:26;;;;;;;12.00;8.80;;;;;;;0.35;56.42;101953.44;5257359;28;20112;-73
2022/03/09 02:53:58;;;;;;;12.20;8.50;;;;;;;0.38;56.32;101950.09;5257537;28;20033;-75
2022/03/09 02:56:29;;;;;;;12.83;8.87;;;;;;;0.33;56.54;101944.75;5257373;28;20120;-74
2022/03/09 02:59:01;;;;;;;15.27;9.07;;;;;;;0.32;56.80;101942.13;5257108;28;20055;-76
2022/03/09 03:01:33;;;;;;;13.93;8.45;;;;;;;0.34;56.51;101949.09;5257487;28;20025;-74
2022/03/09 03:04:04;;;;;;;15.37;9.30;;;;;;;0.30;56.72;101944.59;5256750;28;20078;-73
2022/03/09 03:06:36;;;;;;;15.27;8.90;;;;;;;0.31;56.94;101950.63;5256862;28;20052;-74
2022/03/09 03:09:07;;;;;;;11.43;8.20;;;;;;;0.23;56.72;101951.97;5257376;28;20024;-75
2022/03/09 03:11:38;;;;;;;15.73;8.97;;;;;;;0.15;57.17;101946.44;5256877;28;20021;-76
2022/03/09 03:14:11;;;;;;;15.03;9.17;;;;;;;0.20;57.03;101957.81;5256885;28;20032;-75
2022/03/09 03:16:42;;;;;;;12.70;8.88;;;;;;;0.18;57.15;101954.28;5257006;28;20037;-76
2022/03/09 03:19:15;;;;;;;15.63;9.20;;;;;;;0.12;57.23;101957.44;5257545;28;20033;-77
2022/03/09 03:21:46;;;;;;;14.88;9.63;;;;;;;0.12;57.22;101956.56;5255788;28;20082;-75
2022/03/09 03:24:18;;;;;;;17.43;9.53;;;;;;;0.12;57.66;101954.00;5256605;28;20034;-73
2022/03/09 03:26:49;;;;;;;16.53;9.37;;;;;;;0.05;58.20;101950.25;5256859;28;20025;-74
2022/03/09 03:29:20;;;;;;;13.13;9.40;;;;;;;0.01;57.90;101948.31;5256672;28;20112;-75
2022/03/09 03:31:52;;;;;;;14.17;9.23;;;;;;;0.03;58.11;101951.84;5256882;28;20402;-76
2022/03/09 03:34:23;;;;;;;13.60;9.13;;;;;;;-0.05;57.63;101938.66;5257092;28;20113;-76
2022/03/09 03:36:54;;;;;;;14.57;9.43;;;;;;;-0.07;58.47;101940.25;5256204;28;20111;-75
2022/03/09 03:39:26;;;;;;;13.33;8.97;;;;;;;-0.12;58.47;101944.28;5256407;28;20029;-76
2022/03/09 03:41:57;;;;;;;16.07;9.57;;;;;;;-0.10;58.49;101941.78;5255972;28;20098;-74
2022/03/09 03:44:29;;;;;;;12.87;9.30;;;;;;;-0.23;58.96;101948.88;5256137;28;20051;-75
2022/03/09 03:47:00;;;;;;;14.50;8.70;;;;;;;-0.25;58.84;101941.94;5256307;28;20392;-76
2022/03/09 03:49:31;;;;;;;17.03;9.10;;;;;;;-0.29;59.13;101947.69;5256375;28;20029;-76
2022/03/09 03:52:04;;;;;;;14.55;9.02;;;;;;;-0.32;59.01;101950.09;5256377;28;20493;-76
2022/03/09 03:54:35;;;;;;;14.13;8.97;;;;;;;-0.39;59.42;101954.94;5256211;28;20029;-76
2022/03/09 03:57:07;;;;;;;12.63;8.47;;;;;;;-0.34;59.21;101947.44;5256126;28;20052;-75
2022/03/09 03:59:38;;;;;;;13.77;9.95;;;;;;;-0.29;59.35;101948.59;5256172;28;20052;-76
2022/03/09 04:02:10;;;;;;;18.13;9.63;;;;;;;-0.27;59.07;101946.09;5255546;28;20033;-76
2022/03/09 04:04:42;;;;;;;14.07;9.17;;;;;;;-0.29;58.83;101952.81;5256036;28;20025;-75
2022/03/09 04:07:13;;;;;;;13.33;8.87;;;;;;;-0.28;59.34;101954.59;5256393;28;20025;-75
2022/03/09 04:09:44;;;;;;;15.10;10.10;;;;;;;-0.26;59.31;101951.31;5256149;28;20116;-76
2022/03/09 04:12:16;;;;;;;17.70;9.80;;;;;;;-0.28;59.43;101958.00;5256221;28;20125;-76
2022/03/09 04:14:47;;;;;;;18.23;8.97;;;;;;;-0.27;59.32;101962.34;5255889;28;20107;-76
2022/03/09 04:17:18;;;;;;;14.83;8.10;;;;;;;-0.25;59.30;101962.41;5255311;28;20056;-76
2022/03/09 04:19:50;;;;;;;15.17;9.73;;;;;;;-0.25;59.24;101962.41;5254571;28;20025;-76
2022/03/09 04:22:21;;;;;;;13.93;9.63;;;;;;;-0.30;59.38;101961.31;5255946;28;20036;-76
2022/03/09 04:24:52;;;;;;;14.13;8.73;;;;;;;-0.36;59.49;101954.19;5256012;28;20055;-76
2022/03/09 04:27:24;;;;;;;17.83;9.23;;;;;;;-0.41;59.56;101940.28;5256169;28;20064;-77
2022/03/09 04:29:55;;;;;;;13.67;9.27;;;;;;;-0.39;59.92;101949.81;5255766;28;20025;-76
2022/03/09 04:32:27;;;;;;;14.57;8.80;;;;;;;-0.43;59.94;101947.88;5256134;28;20100;-77
2022/03/09 04:34:58;;;;;;;16.93;10.20;;;;;;;-0.45;59.58;101946.03;5255393;28;20067;-76
2022/03/09 04:37:31;;;;;;;15.17;8.97;;;;;;;-0.48;59.90;101941.66;5255990;28;20483;-76
2022/03/09 04:40:04;;;;;;;19.42;10.50;;;;;;;-0.48;60.17;101944.22;5255341;28;20021;-75
2022/03/09 04:42:35;;;;;;;11.93;8.90;;;;;;;-0.51;60.22;101944.06;5255192;28;20071;-74
2022/03/09 04:45:07;;;;;;;21.50;9.43;;;;;;;-0.55;60.33;101942.13;5255395;28;20032;-75
2022/03/09 04:47:38;;;;;;;17.00;10.03;;;;;;;-0.58;59.98;101944.53;5255235;28;20021;-77
2022/03/09 04:50:09;;;;;;;22.90;10.77;;;;;;;-0.60;60.56;101939.31;5255381;28;20023;-74
2022/03/09 04:52:41;;;;;;;13.00;9.03;;;;;;;-0.60;60.23;101941.88;5255049;28;20056;-76
2022/03/09 04:55:12;;;;;;;13.20;9.10;;;;;;;-0.61;60.62;101936.69;5255501;28;20099;-75
2022/03/09 04:57:43;;;;;;;14.37;9.80;;;;;;;-0.65;60.46;101935.66;5255080;28;20115;-75
2022/03/09 05:00:15;;;;;;;12.63;9.07;;;;;;;-0.71;60.66;101926.78;5254959;28;20029;-76
2022/03/09 05:02:46;;;;;;;12.57;9.90;;;;;;;-0.81;61.90;101933.09;5254943;28;20103;-76
2022/03/09 05:05:18;;;;;;;12.70;9.20;;;;;;;-0.82;61.38;101939.00;5255158;28;20068;-75
2022/03/09 05:07:49;;;;;;;14.40;10.20;;;;;;;-0.95;61.16;101940.94;5255059;28;20071;-74
2022/03/09 05:10:21;;;;;;;13.97;9.83;;;;;;;-0.96;61.52;101944.28;5255300;28;20029;-75
2022/03/09 05:12:52;;;;;;;15.30;8.67;;;;;;;-0.98;61.93;101947.59;5255208;28;20400;-75
2022/03/09 05:15:23;;;;;;;15.93;9.03;;;;;;;-1.04;61.85;101939.59;5254766;28;20501;-75
2022/03/09 05:17:55;;;;;;;17.37;10.30;;;;;;;-1.05;62.05;101943.81;5254682;28;20025;-73
2022/03/09 05:20:26;;;;;;;15.90;8.57;;;;;;;-1.03;61.93;101936.22;5254934;28;20082;-75
2022/03/09 05:22:57;;;;;;;15.97;8.73;;;;;;;-1.11;62.74;101946.94;5255152;28;20069;-75
2022/03/09 05:25:29;;;;;;;13.07;8.13;;;;;;;-1.15;62.56;101947.56;5253505;28;20041;-75
2022/03/09 05:28:01;;;;;;;13.95;9.23;;;;;;;-1.21;63.22;101942.09;5254993;28;20025;-76
2022/03/09 05:30:33;;;;;;;15.23;9.27;;;;;;;-1.17;63.32;101944.03;5253516;28;20037;-75
2022/03/09 05:33:05;;;;;;;15.45;8.75;;;;;;;-1.20;62.74;101954.09;5254760;28;20040;-75
2022/03/09 05:35:38;;;;;;;18.43;9.90;;;;;;;-1.23;62.73;101953.06;5255023;28;20033;-75
2022/03/09 05:38:10;;;;;;;13.23;9.45;;;;;;;-1.29;63.44;101958.72;5254734;28;20030;-75
2022/03/09 05:40:41;;;;;;;18.80;9.70;;;;;;;-1.35;63.50;101966.09;5254885;28;20029;-75
2022/03/09 05:43:13;;;;;;;15.83;9.00;;;;;;;-1.38;64.04;101963.34;5254276;28;20029;-75
2022/03/09 05:45:44;;;;;;;16.13;9.97;;;;;;;-1.38;63.83;101960.78;5254612;28;20485;-75
2022/03/09 05:48:15;;;;;;;16.27;10.07;;;;;;;-1.35;64.31;101966.09;5254784;28;20071;-75
2022/03/09 05:50:47;;;;;;;18.33;10.00;;;;;;;-1.34;63.90;101955.03;5254238;28;20036;-75
2022/03/09 05:53:18;;;;;;;18.87;9.43;;;;;;;-1.27;64.07;101964.81;5254768;28;20021;-75
2022/03/09 05:55:49;;;;;;;21.77;9.97;;;;;;;-1.28;63.86;101975.84;5254778;28;20118;-75
2022/03/09 05:58:21;;;;;;;18.90;9.73;;;;;;;-1.32;64.50;101974.78;5254519;28;20081;-76
2022/03/09 06:00:52;;;;;;;16.90;9.40;;;;;;;-1.33;64.04;101975.59;5254995;28;20491;-77
2022/03/09 06:03:23;;;;;;;17.63;9.70;;;;;;;-1.32;64.53;101984.13;5254604;28;20028;-75
2022/03/09 06:05:55;;;;;;;14.57;9.57;;;;;;;-1.33;64.56;101990.06;5253884;28;20029;-74
2022/03/09 06:08:26;;;;;;;17.67;10.23;;;;;;;-1.34;64.32;101991.72;5254648;28;20025;-77
2022/03/09 06:10:58;;;;;;;15.53;9.77;;;;;;;-1.33;64.58;101992.63;5254398;28;20112;-76
2022/03/09 06:13:29;;;;;;;15.37;9.37;;;;;;;-1.34;64.95;101994.28;5254563;28;20067;-74
2022/03/09 06:16:01;;;;;;;17.00;9.47;;;;;;;-1.35;64.80;101997.66;5253752;28;20049;-74
2022/03/09 06:18:32;;;;;;;15.27;10.00;;;;;;;-1.41;64.88;101999.84;5252778;28;20173;-75
2022/03/09 06:21:03;;;;;;;17.10;10.03;;;;;;;-1.40;65.19;102003.28;5257323;28;20107;-78
2022/03/09 06:23:35;;;;;;;17.80;9.47;;;;;;;-1.37;65.12;102000.91;5258400;28;20033;-77
2022/03/09 06:26:07;;;;;;;20.57;11.13;;;;;;;-1.34;64.84;101996.84;5258055;28;20025;-74
2022/03/09 06:28:38;;;;;;;14.73;9.85;;;;;;;-1.40;65.44;101995.63;5257878;28;20235;-75
2022/03/09 06:31:09;;;;;;;17.53;10.57;;;;;;;-1.39;65.07;101997.38;5257682;28;20025;-73
2022/03/09 06:33:41;;;;;;;19.23;10.37;;;;;;;-1.34;64.78;102001.06;5258031;28;20108;-74
2022/03/09 06:36:12;;;;;;;17.27;10.30;;;;;;;-1.32;65.26;101999.47;5257584;28;20036;-76
2022/03/09 06:38:43;;;;;;;19.23;10.03;;;;;;;-1.25;65.18;102003.28;5258153;28;20484;-73
2022/03/09 06:41:15;;;;;;;16.70;10.43;;;;;;;-1.25;65.70;102010.94;5257697;28;20029;-74
2022/03/09 06:43:46;;;;;;;15.00;10.63;;;;;;;-1.24;65.50;102008.47;5257169;28;20122;-74
2022/03/09 06:46:19;;;;;;;14.63;10.33;;;;;;;-1.23;65.36;102017.03;5257609;28;20396;-73
2022/03/09 06:48:50;;;;;;;17.77;11.35;;;;;;;-1.19;65.25;102024.06;5257440;28;20050;-74
2022/03/09 06:51:22;;;;;;;15.17;10.37;;;;;;;-1.16;65.55;102022.56;5258777;28;20063;-74
2022/03/09 06:53:53;;;;;;;16.90;10.67;;;;;;;-1.07;65.19;102031.53;5259601;28;20021;-73
2022/03/09 06:56:24;;;;;;;17.13;10.00;;;;;;;-0.98;64.92;102038.03;5256965;28;20028;-74
2022/03/09 06:58:56;;;;;;;13.87;10.27;;;;;;;-0.87;64.17;102036.06;5257577;28;20078;-76
2022/03/09 07:01:27;;;;;;;16.97;9.40;;;;;;;-0.79;64.23;102036.47;5257704;28;20032;-75
2022/03/09 07:03:59;;;;;;;16.33;9.70;;;;;;;-0.65;63.77;102037.22;5258232;28;20029;-76
2022/03/09 07:06:30;;;;;;;17.90;10.23;;;;;;;-0.53;63.27;102026.72;5258136;28;20028;-76
2022/03/09 07:09:01;;;;;;;15.27;9.63;;;;;;;-0.45;62.85;102041.72;5257835;28;20074;-75
2022/03/09 07:11:34;;;;;;;18.47;9.30;;;;;;;-0.32;62.33;102043.22;5257538;28;20112;-76
2022/03/09 07:14:05;;;;;;;15.35;10.13;;;;;;;-0.19;61.64;102043.06;5257613;28;20025;-73
2022/03/09 07:16:37;;;;;;;14.53;9.37;;;;;;;-0.07;60.95;102041.91;5257456;28;20056;-75
2022/03/09 07:19:09;;;;;;;14.35;9.70;;;;;;;0.06;60.20;102049.41;5257493;28;20136;-75
2022/03/09 07:21:40;;;;;;;24.53;9.93;;;;;;;0.15;60.03;102046.44;5256942;28;20292;-75
2022/03/09 07:24:11;;;;;;;14.93;8.93;;;;;;;0.25;59.41;102040.09;5257551;28;20029;-76
2022/03/09 07:26:43;;;;;;;16.73;9.97;;;;;;;0.36;59.09;102044.06;5257052;28;20528;-74
2022/03/09 07:29:15;;;;;;;17.30;9.43;;;;;;;0.46;59.23;102045.41;5257065;28;20016;-78
2022/03/09 07:31:47;;;;;;;22.20;10.45;;;;;;;0.60;58.49;102049.50;5256365;28;20484;-76
2022/03/09 07:34:19;;;;;;;15.63;10.33;;;;;;;0.66;58.32;102042.13;5256869;28;20056;-77
2022/03/09 07:36:51;;;;;;;;;;;;;;;0.73;58.25;102044.16;5257223;28;20028;-75
2022/03/09 07:39:27;;;;;;;12.40;8.63;;;;;;;0.96;57.57;102046.91;5256534;28;19916;-73
2022/03/09 07:41:59;;;;;;;15.13;9.50;;;;;;;1.10;57.38;102039.88;5256469;28;20075;-73
2022/03/09 07:44:30;;;;;;;15.47;9.70;;;;;;;1.23;57.19;102037.03;5256364;28;20120;-75
2022/03/09 07:47:02;;;;;;;15.30;9.83;;;;;;;1.35;56.77;102036.72;5256740;28;20286;-77
2022/03/09 07:49:33;;;;;;;14.70;9.87;;;;;;;1.50;56.02;102035.63;5256452;28;20135;-77
2022/03/09 07:52:05;;;;;;;17.17;9.13;;;;;;;1.63;55.11;102033.69;5256085;28;20025;-75
2022/03/09 07:54:37;;;;;;;13.30;8.93;;;;;;;1.82;54.04;102034.50;5256041;28;20048;-75
2022/03/09 07:57:08;;;;;;;15.63;8.83;;;;;;;2.02;53.26;102031.91;5256265;28;20056;-73
2022/03/09 07:59:40;;;;;;;15.27;9.77;;;;;;;2.17;52.33;102038.56;5256002;28;20036;-76
2022/03/09 08:02:11;;;;;;;14.23;9.60;;;;;;;2.31;51.82;102038.25;5256200;28;20838;-76
2022/03/09 08:04:42;;;;;;;13.70;9.13;;;;;;;2.48;50.97;102036.34;5256065;28;20040;-76
2022/03/09 08:07:13;;;;;;;17.30;8.60;;;;;;;2.75;51.78;102039.16;5256169;28;20028;-76
2022/03/09 08:09:45;;;;;;;15.47;9.77;;;;;;;2.79;50.67;102046.19;5254277;28;20025;-76
2022/03/09 08:12:16;;;;;;;13.23;9.67;;;;;;;2.94;49.12;102053.63;5255533;28;20071;-76
2022/03/09 08:14:48;;;;;;;15.53;9.97;;;;;;;3.07;49.29;102061.00;5255505;28;20037;-74
2022/03/09 08:17:19;;;;;;;16.50;10.10;;;;;;;3.21;48.32;102052.94;5255256;28;20518;-77
2022/03/09 08:19:51;;;;;;;17.03;8.67;;;;;;;3.36;48.16;102066.41;5255472;28;20464;-77
2022/03/09 08:22:22;;;;;;;17.63;9.60;;;;;;;3.51;47.67;102068.69;5255458;28;20041;-74
2022/03/09 08:24:53;;;;;;;13.47;9.27;;;;;;;3.68;47.21;102065.84;5255000;28;20718;-73
2022/03/09 08:27:25;;;;;;;12.07;9.00;;;;;;;3.82;47.25;102065.50;5255609;28;20029;-73
2022/03/09 08:29:57;;;;;;;14.83;9.03;;;;;;;3.95;46.96;102064.22;5255551;28;20029;-77
2022/03/09 08:32:28;;;;;;;13.60;10.07;;;;;;;4.19;46.12;102065.91;5255676;28;20144;-74
2022/03/09 08:34:59;;;;;;;21.57;9.93;;;;;;;4.41;44.97;102061.47;5254916;28;20053;-75
2022/03/09 08:37:31;;;;;;;15.03;10.13;;;;;;;4.70;44.00;102063.28;5255060;28;20029;-74
2022/03/09 08:40:03;;;;;;;12.77;9.07;;;;;;;4.99;43.51;102062.44;5255013;28;20033;-76
2022/03/09 08:42:35;;;;;;;17.73;9.20;;;;;;;5.18;42.83;102062.16;5254348;28;20025;-73
2022/03/09 08:45:07;;;;;;;18.27;10.67;;;;;;;5.45;42.48;102072.44;5255141;28;20040;-75
2022/03/09 08:47:39;;;;;;;15.47;11.10;;;;;;;5.67;42.28;102065.31;5254731;28;20035;-74
2022/03/09 08:50:10;;;;;;;15.52;9.82;;;;;;;6.06;41.33;102066.38;5255517;28;20337;-76
2022/03/09 08:52:42;;;;;;;13.63;9.10;;;;;;;6.33;40.93;102079.16;5255511;28;20036;-77
2022/03/09 08:55:13;;;;;;;14.40;9.70;;;;;;;6.55;40.65;102076.28;5253875;28;20033;-73
2022/03/09 08:57:45;;;;;;;15.37;9.23;;;;;;;6.79;39.50;102072.50;5255358;28;20044;-73
2022/03/09 09:00:16;;;;;;;16.67;9.70;;;;;;;6.89;38.47;102069.31;5256042;28;20112;-75
2022/03/09 09:02:48;;;;;;;15.03;10.13;;;;;;;7.20;39.44;102067.38;5255823;28;20611;-76
2022/03/09 09:05:19;;;;;;;20.23;10.70;;;;;;;7.41;38.59;102072.16;5255681;28;20133;-75
2022/03/09 09:07:51;;;;;;;16.53;11.10;;;;;;;7.60;38.04;102068.22;5256828;28;20063;-75
2022/03/09 09:10:22;;;;;;;13.77;10.43;;;;;;;7.73;37.42;102063.25;5257682;28;20108;-76
2022/03/09 09:12:57;;;;;;;17.13;11.17;;;;;;;8.14;37.47;102064.03;5255184;28;20033;-74
2022/03/09 09:15:29;;;;;;;18.60;10.57;;;;;;;8.26;36.99;102068.59;5253883;28;20079;-77
2022/03/09 09:18:02;;;;;;;14.10;10.77;;;;;;;8.48;36.26;102067.25;5255164;28;20025;-76
2022/03/09 09:20:35;;;;;;;15.38;9.93;;;;;;;8.69;36.01;102069.31;5259149;28;20033;-77
2022/03/09 09:23:06;;;;;;;23.17;11.13;;;;;;;9.08;36.53;102056.88;5260881;28;20025;-76
2022/03/09 09:25:37;;;;;;;17.63;10.53;;;;;;;9.24;35.17;102061.44;5256664;28;20598;-75
2022/03/09 09:28:09;;;;;;;16.53;12.07;;;;;;;9.48;34.15;102068.69;5256248;28;20185;-76
2022/03/09 09:30:41;;;;;;;15.00;10.07;;;;;;;9.68;34.19;102060.25;5255352;28;20029;-74
2022/03/09 09:33:12;;;;;;;23.03;11.60;;;;;;;9.95;34.40;102057.06;5255086;28;20025;-76
2022/03/09 09:35:43;;;;;;;18.10;11.17;;;;;;;10.40;33.26;102061.00;5254757;28;20507;-76
2022/03/09 09:38:16;;;;;;;15.57;11.67;;;;;;;10.33;32.63;102063.53;5254409;28;20457;-77
2022/03/09 09:40:47;;;;;;;17.80;10.75;;;;;;;10.60;32.57;102059.41;5254802;28;20472;-73
2022/03/09 09:43:19;;;;;;;17.87;11.97;;;;;;;10.74;32.01;102063.84;5254703;28;20040;-74
2022/03/09 09:45:51;;;;;;;14.97;11.20;;;;;;;10.92;32.25;102057.88;5254996;28;20033;-78
2022/03/09 09:48:23;;;;;;;;;;;;;;;11.76;33.28;102063.47;5255646;28;20051;-76
2022/03/09 09:50:55;;;;;;;17.33;12.57;;;;;;;11.65;30.92;102059.06;5258367;28;20387;-75
2022/03/09 09:53:28;;;;;;;20.52;11.93;;;;;;;12.12;32.01;102057.47;5261401;28;20029;-76
2022/03/09 09:56:00;;;;;;;21.45;12.55;;;;;;;12.48;30.02;102060.13;5261500;28;20029;-76
2022/03/09 09:58:32;;;;;;;18.08;12.30;;;;;;;12.56;30.04;102067.09;5259140;28;20028;-78
2022/03/09 10:01:03;;;;;;;17.65;12.13;;;;;;;12.83;30.08;102067.94;5258819;28;20117;-76
2022/03/09 10:03:35;;;;;;;23.60;12.30;;;;;;;13.07;29.39;102061.78;5259432;28;20132;-76
2022/03/09 10:06:07;;;;;;;19.67;12.90;;;;;;;13.32;28.56;102061.69;5258618;28;20025;-76
2022/03/09 10:08:39;;;;;;;21.80;13.67;;;;;;;13.34;28.10;102059.97;5258774;28;20373;-77
2022/03/09 10:11:11;;;;;;;22.35;12.77;;;;;;;13.55;28.11;102059.00;5258468;28;20112;-76
2022/03/09 10:13:47;;;;;;;16.17;12.85;;;;;;;13.93;28.10;102057.91;5258610;28;20060;-77
2022/03/09 10:16:20;;;;;;;20.63;13.07;;;;;;;14.18;27.36;102055.13;5258310;28;20091;-77
2022/03/09 10:18:55;;;;;;;20.35;12.77;;;;;;;14.28;27.68;102056.81;5258412;28;20345;-77
2022/03/09 10:21:29;;;;;;;19.08;13.63;;;;;;;14.51;26.99;102063.63;5258242;28;20048;-78
2022/03/09 10:24:03;;;;;;;19.35;13.38;;;;;;;14.62;26.91;102059.19;5256952;28;20296;-75
2022/03/09 10:26:34;;;;;;;17.27;13.13;;;;;;;15.16;26.72;102042.84;5258088;28;20028;-77
2022/03/09 10:29:08;;;;;;;17.90;12.70;;;;;;;15.59;26.58;102031.78;5258500;28;20051;-77
2022/03/09 10:31:48;;;;;;;24.13;13.73;;;;;;;15.79;27.86;102039.44;5258176;28;20099;-76
2022/03/09 10:34:24;;;;;;;23.85;14.32;;;;;;;16.29;25.81;102041.28;5258371;28;20480;-76
2022/03/09 10:37:01;;;;;;;23.58;13.25;;;;;;;16.26;25.44;102039.59;5257808;28;20032;-76
2022/03/09 10:39:40;;;;;;;25.08;14.55;;;;;;;16.23;25.70;102042.28;5257957;28;20461;-76
2022/03/09 10:42:23;;;;;;;19.20;13.32;;;;;;;17.03;25.74;102034.72;5257928;28;20025;-77
2022/03/09 10:44:55;;;;;;;19.95;14.68;;;;;;;16.86;24.79;102037.69;5257983;28;20472;-77
2022/03/09 10:47:38;;;;;;;23.10;13.77;;;;;;;17.53;24.60;102043.34;5256172;28;20036;-75
2022/03/09 10:50:14;;;;;;;18.63;14.23;;;;;;;17.63;25.06;102041.38;5257654;28;20040;-78
2022/03/09 10:52:52;;;;;;;20.30;14.68;;;;;;;17.81;24.09;102035.69;5257790;28;20059;-78
2022/03/09 10:55:24;;;;;;;20.42;14.98;;;;;;;18.60;23.54;102049.63;5257715;28;20060;-77
2022/03/09 10:58:14;;;;;;;23.37;15.37;;;;;;;18.94;23.50;102044.31;5257492;28;20512;-77
2022/03/09 11:00:54;;;;;;;19.70;14.57;;;;;;;18.88;23.55;102039.19;5256115;28;20507;-78
2022/03/09 11:03:27;;;;;;;23.05;15.77;;;;;;;19.00;22.07;102038.00;5257583;28;20028;-76
2022/03/09 11:06:03;;;;;;;22.00;16.35;;;;;;;19.77;22.06;102035.75;5256641;28;20388;-76
2022/03/09 11:08:37;;;;;;;23.20;16.67;;;;;;;19.36;21.28;102035.19;5256276;28;20481;-77
2022/03/09 11:11:09;;;;;;;21.83;16.73;;;;;;;19.69;21.72;102037.75;5258324;28;20136;-76
2022/03/09 11:13:40;;;;;;;21.73;15.10;;;;;;;20.20;21.06;102034.34;5257323;28;20515;-75
2022/03/09 11:16:12;;;;;;;22.03;17.70;;;;;;;20.08;20.43;102036.56;5257380;28;20458;-75
2022/03/09 11:18:43;;;;;;;24.83;17.17;;;;;;;20.25;20.48;102031.53;5257391;28;20139;-76
2022/03/09 11:21:16;;;;;;;25.03;16.80;;;;;;;20.75;20.34;102028.97;5256940;28;20025;-74
2022/03/09 11:23:47;;;;;;;27.75;18.13;;;;;;;20.52;20.37;102027.09;5256970;28;20579;-76
2022/03/09 11:26:29;;;;;;;25.47;19.03;;;;;;;20.57;20.30;102026.94;5256993;28;20029;-77
2022/03/09 11:29:05;;;;;;;24.77;18.48;;;;;;;21.00;20.53;102020.13;5256686;28;20051;-75
2022/03/09 11:31:51;;;;;;;24.15;19.00;;;;;;;21.28;20.32;102027.91;5256739;28;20120;-77
2022/03/09 11:34:38;;;;;;;27.58;17.45;;;;;;;21.52;19.34;102022.59;5257128;28;20028;-75
2022/03/09 11:37:16;;;;;;;21.45;17.10;;;;;;;21.22;19.33;102021.97;5257396;28;20021;-77
2022/03/09 11:40:10;;;;;;;25.05;18.00;;;;;;;21.56;19.29;102012.72;5257881;28;20469;-74
2022/03/09 11:42:44;;;;;;;23.80;17.65;;;;;;;21.70;18.71;102004.22;5256918;28;20385;-77
2022/03/09 11:45:17;;;;;;;22.75;17.67;;;;;;;22.45;17.91;102005.56;5256532;28;20040;-76